Time;durP1;ratioP1;P1;durP2;ratioP2;P2;SDS_P1;SDS_P2;PMS_P1;PMS_P2;Temp;Humidity;BMP_temperature;BMP_pressure;BME280_temperature;BME280_humidity;BME280_pressure;Samples;Min_cycle;Max_cycle;Signal;HPM_P1;HPM_P2
2023/12/20 00:01:47;;;;;;;22.83;16.13;;;8.80;70.90;;;;;;6274729;22;20149;-84
2023/12/20 00:04:12;;;;;;;25.43;17.80;;;8.80;69.70;;;;;;6277567;22;20163;-85
2023/12/20 00:06:38;;;;;;;24.00;16.43;;;8.80;67.00;;;;;;6277069;22;20161;-84
2023/12/20 00:09:03;;;;;;;25.13;16.87;;;8.80;58.90;;;;;;6275372;22;20211;-84
2023/12/20 00:11:29;;;;;;;26.90;18.50;;;8.80;55.60;;;;;;6277348;22;20202;-84
2023/12/20 00:13:54;;;;;;;25.00;17.87;;;8.70;51.70;;;;;;6277114;22;20159;-83
2023/12/20 00:16:20;;;;;;;26.73;16.67;;;8.70;51.60;;;;;;6277614;22;20149;-82
2023/12/20 00:18:45;;;;;;;27.40;18.10;;;8.60;51.20;;;;;;6249948;22;20195;-84
2023/12/20 00:21:11;;;;;;;26.20;15.93;;;8.60;50.10;;;;;;6276684;22;20165;-84
2023/12/20 00:23:36;;;;;;;25.60;15.40;;;8.60;49.30;;;;;;6284063;22;20160;-84
2023/12/20 00:26:02;;;;;;;22.70;16.80;;;8.50;49.80;;;;;;6284938;22;20551;-84
2023/12/20 00:28:28;;;;;;;22.90;15.60;;;8.50;52.70;;;;;;6285233;22;20165;-84
2023/12/20 00:30:53;;;;;;;19.80;12.97;;;8.50;53.10;;;;;;6284922;22;20208;-84
2023/12/20 00:33:19;;;;;;;23.70;15.17;;;8.50;51.80;;;;;;6259269;22;20556;-84
2023/12/20 00:35:44;;;;;;;31.70;14.67;;;8.50;52.20;;;;;;6284145;22;20152;-84
2023/12/20 00:38:11;;;;;;;21.33;15.03;;;8.50;51.30;;;;;;6259122;22;20156;-84
2023/12/20 00:40:36;;;;;;;22.23;13.73;;;8.50;47.90;;;;;;6281871;22;20156;-84
2023/12/20 00:43:02;;;;;;;23.73;15.07;;;8.50;47.00;;;;;;6284192;22;20859;-84
2023/12/20 00:45:27;;;;;;;23.23;15.63;;;8.50;47.20;;;;;;6283478;22;20153;-84
2023/12/20 00:47:53;;;;;;;22.87;14.30;;;8.60;51.10;;;;;;6285801;22;20203;-85
2023/12/20 00:50:18;;;;;;;27.77;16.00;;;8.50;48.10;;;;;;6287427;22;20180;-84
2023/12/20 00:52:44;;;;;;;22.73;14.50;;;8.50;45.00;;;;;;6292016;22;20145;-84
2023/12/20 00:55:09;;;;;;;23.60;15.43;;;8.60;38.50;;;;;;6298150;22;20160;-84
2023/12/20 00:57:35;;;;;;;23.47;14.63;;;8.50;29.50;;;;;;6296390;22;20153;-85
2023/12/20 01:00:01;;;;;;;21.20;13.97;;;8.60;26.40;;;;;;6297775;22;20195;-83
2023/12/20 01:02:26;;;;;;;23.40;12.03;;;8.40;1.00;;;;;;6296279;22;20159;-84
2023/12/20 01:04:52;;;;;;;21.13;12.40;;;8.40;1.00;;;;;;6294640;22;20159;-84
2023/12/20 01:07:17;;;;;;;19.73;10.57;;;8.30;1.00;;;;;;6289635;22;20168;-84
2023/12/20 01:09:43;;;;;;;19.90;10.73;;;8.20;1.00;;;;;;6286409;22;20180;-84
2023/12/20 01:12:08;;;;;;;14.97;9.20;;;8.10;1.00;;;;;;6287713;22;20149;-84
2023/12/20 01:14:34;;;;;;;17.13;10.40;;;8.10;1.00;;;;;;6288849;22;20152;-84
2023/12/20 01:16:59;;;;;;;17.77;9.20;;;8.00;1.00;;;;;;6262396;22;20164;-85
2023/12/20 01:19:25;;;;;;;15.60;8.20;;;7.90;1.00;;;;;;6288508;22;20644;-85
2023/12/20 01:21:50;;;;;;;20.67;7.87;;;7.90;1.00;;;;;;6286028;22;20148;-83
2023/12/20 01:24:16;;;;;;;12.70;7.50;;;7.80;1.00;;;;;;6288584;22;20206;-84
2023/12/20 01:26:42;;;;;;;17.90;6.73;;;7.80;1.00;;;;;;6287201;22;20217;-84
2023/12/20 01:29:07;;;;;;;11.57;5.27;;;7.80;1.00;;;;;;6287476;22;20191;-85
2023/12/20 01:31:33;;;;;;;17.47;5.90;;;7.80;1.00;;;;;;6289048;22;20371;-84
2023/12/20 01:33:58;;;;;;;16.70;4.93;;;7.80;1.00;;;;;;6287980;22;20149;-85
2023/12/20 01:36:24;;;;;;;11.70;4.30;;;7.80;1.00;;;;;;6289245;22;20204;-84
2023/12/20 01:38:49;;;;;;;14.37;5.20;;;7.80;1.00;;;;;;6258442;22;20178;-85
2023/12/20 01:41:15;;;;;;;11.80;4.80;;;7.70;1.00;;;;;;6286452;22;20635;-84
2023/12/20 01:43:40;;;;;;;8.30;3.77;;;7.70;1.00;;;;;;6258408;22;20164;-84
2023/12/20 01:46:07;;;;;;;9.77;3.50;;;7.60;1.00;;;;;;6285680;22;20148;-84
2023/12/20 01:48:32;;;;;;;10.13;3.33;;;7.60;1.00;;;;;;6285291;22;20221;-85
2023/12/20 01:50:59;;;;;;;11.30;4.43;;;7.50;1.00;;;;;;6285102;22;20641;-85
2023/12/20 01:53:28;;;;;;;18.80;4.20;;;7.40;1.00;;;;;;6259713;22;20153;-83
2023/12/20 01:55:56;;;;;;;14.35;4.05;;;7.40;1.00;;;;;;6285524;22;20218;-84
2023/12/20 01:58:22;;;;;;;10.80;3.88;;;7.30;1.00;;;;;;6286985;22;20160;-84
2023/12/20 02:00:48;;;;;;;15.73;3.50;;;7.30;1.00;;;;;;6285483;22;20153;-84
2023/12/20 02:03:14;;;;;;;19.23;4.47;;;7.20;1.00;;;;;;6286212;22;20183;-84
2023/12/20 02:05:40;;;;;;;17.33;4.93;;;7.20;1.00;;;;;;6285756;22;20379;-84
2023/12/20 02:08:06;;;;;;;11.00;4.03;;;7.20;1.00;;;;;;6286672;22;20153;-83
2023/12/20 02:10:32;;;;;;;14.93;5.20;;;7.30;1.00;;;;;;6259006;22;20180;-84
2023/12/20 02:12:58;;;;;;;11.17;4.20;;;7.30;1.00;;;;;;6287585;22;20160;-85
2023/12/20 02:15:24;;;;;;;13.60;4.47;;;7.30;1.00;;;;;;6287160;22;20152;-85
2023/12/20 02:17:50;;;;;;;12.20;3.10;;;7.30;1.00;;;;;;6260376;22;20459;-84
2023/12/20 02:20:16;;;;;;;16.08;4.47;;;7.30;1.00;;;;;;6287307;22;20672;-84
2023/12/20 02:22:41;;;;;;;9.80;3.83;;;7.30;1.00;;;;;;6282216;22;20220;-83
2023/12/20 02:25:07;;;;;;;8.27;2.47;;;7.40;1.00;;;;;;6286612;22;20375;-84
2023/12/20 02:27:33;;;;;;;12.37;3.37;;;7.40;1.00;;;;;;6284980;22;20164;-84
2023/12/20 02:29:58;;;;;;;14.10;3.17;;;7.40;1.00;;;;;;6286186;22;20181;-83
2023/12/20 02:32:27;;;;;;;9.30;2.77;;;7.40;1.00;;;;;;6286553;22;20176;-83
2023/12/20 02:34:54;;;;;;;10.18;3.10;;;7.40;1.00;;;;;;6286947;22;20153;-84
2023/12/20 02:37:19;;;;;;;7.80;2.80;;;7.40;1.00;;;;;;6287189;22;20216;-84
2023/12/20 02:39:45;;;;;;;13.13;3.50;;;7.40;1.00;;;;;;6283348;22;20180;-83
2023/12/20 02:42:10;;;;;;;9.73;2.77;;;7.40;1.00;;;;;;6282985;22;20172;-85
2023/12/20 02:44:36;;;;;;;10.30;3.60;;;7.40;1.00;;;;;;6284866;22;20148;-84
2023/12/20 02:47:02;;;;;;;13.63;3.60;;;7.40;1.00;;;;;;6286650;22;20148;-85
2023/12/20 02:49:27;;;;;;;13.27;2.70;;;7.40;1.00;;;;;;6287206;22;20183;-84
2023/12/20 02:51:53;;;;;;;10.03;3.30;;;7.40;1.00;;;;;;6286661;22;20470;-83
2023/12/20 02:54:18;;;;;;;8.60;3.20;;;7.40;1.00;;;;;;6285084;22;20176;-84
2023/12/20 02:56:44;;;;;;;11.87;4.30;;;7.40;1.00;;;;;;6282535;22;20608;-84
2023/12/20 02:59:09;;;;;;;10.40;3.30;;;7.30;1.00;;;;;;6283419;22;20247;-83
2023/12/20 03:01:35;;;;;;;8.83;3.20;;;7.30;1.00;;;;;;6286000;22;20201;-84
2023/12/20 03:04:01;;;;;;;9.67;4.07;;;7.20;1.00;;;;;;6285697;22;20153;-84
2023/12/20 03:06:27;;;;;;;15.33;3.30;;;7.20;1.00;;;;;;6286454;22;20255;-84
2023/12/20 03:08:52;;;;;;;20.97;3.73;;;7.20;1.00;;;;;;6286064;22;20391;-84
2023/12/20 03:11:18;;;;;;;8.10;3.10;;;7.10;1.00;;;;;;6285843;22;20478;-84
2023/12/20 03:13:43;;;;;;;17.93;3.70;;;7.10;1.00;;;;;;6256847;22;20994;-81
2023/12/20 03:16:10;;;;;;;23.60;5.10;;;7.10;1.00;;;;;;6282131;22;20156;-83
2023/12/20 03:18:35;;;;;;;14.27;4.28;;;7.10;1.00;;;;;;6284755;22;20529;-84
2023/12/20 03:21:01;;;;;;;7.53;3.83;;;7.10;1.00;;;;;;6284388;22;20141;-84
2023/12/20 03:23:27;;;;;;;17.67;3.97;;;7.10;1.00;;;;;;6285269;22;20148;-85
2023/12/20 03:25:52;;;;;;;13.30;5.00;;;7.10;1.00;;;;;;6288721;22;20820;-84
2023/12/20 03:28:19;;;;;;;8.57;4.30;;;7.10;1.00;;;;;;6285319;22;20168;-84
2023/12/20 03:30:44;;;;;;;18.48;5.10;;;7.10;1.00;;;;;;6287385;22;20172;-84
2023/12/20 03:33:10;;;;;;;16.20;4.73;;;7.10;1.00;;;;;;6283779;22;20145;-84
2023/12/20 03:35:35;;;;;;;9.97;4.80;;;7.10;1.00;;;;;;6285756;22;20152;-85
2023/12/20 03:38:01;;;;;;;22.33;4.87;;;7.10;1.00;;;;;;6284829;22;20255;-84
2023/12/20 03:40:26;;;;;;;13.93;4.43;;;7.10;1.00;;;;;;6284274;22;20160;-84
2023/12/20 03:42:52;;;;;;;16.90;6.77;;;7.00;1.00;;;;;;6284305;22;20658;-85
2023/12/20 03:45:17;;;;;;;15.20;4.87;;;7.00;1.00;;;;;;6285213;22;20152;-84
2023/12/20 03:47:43;;;;;;;13.50;4.60;;;6.90;1.00;;;;;;6286227;22;20243;-84
2023/12/20 03:50:08;;;;;;;12.77;5.20;;;6.80;1.00;;;;;;6282615;22;20211;-85
2023/12/20 03:52:34;;;;;;;18.33;5.80;;;6.80;1.00;;;;;;6256181;22;20153;-83
2023/12/20 03:54:59;;;;;;;26.10;7.33;;;6.80;1.00;;;;;;6283980;22;20153;-84
2023/12/20 03:57:25;;;;;;;16.47;6.53;;;6.70;1.00;;;;;;6282506;22;20152;-83
2023/12/20 03:59:50;;;;;;;12.60;5.80;;;6.70;1.00;;;;;;6284975;22;20175;-84
2023/12/20 04:02:17;;;;;;;12.20;5.77;;;6.80;1.00;;;;;;6284444;22;20157;-84
2023/12/20 04:04:43;;;;;;;13.95;6.80;;;6.80;1.00;;;;;;6284887;22;20148;-83
2023/12/20 04:07:09;;;;;;;26.60;6.73;;;6.90;1.00;;;;;;6281672;22;20172;-83
2023/12/20 04:09:34;;;;;;;18.00;5.00;;;6.90;1.00;;;;;;6281369;22;20355;-84
2023/12/20 04:12:00;;;;;;;16.57;6.07;;;6.90;1.00;;;;;;6278885;22;20172;-84
2023/12/20 04:14:25;;;;;;;17.07;6.17;;;6.80;1.00;;;;;;6277366;22;20234;-83
2023/12/20 04:16:51;;;;;;;18.97;6.17;;;6.80;1.00;;;;;;6277213;22;20149;-83
2023/12/20 04:19:16;;;;;;;19.40;5.70;;;6.70;1.00;;;;;;6277018;22;20586;-83
2023/12/20 04:21:42;;;;;;;15.07;4.93;;;6.70;1.00;;;;;;6276828;22;20156;-84
2023/12/20 04:24:08;;;;;;;14.73;4.80;;;6.70;1.00;;;;;;6277658;22;20156;-84
2023/12/20 04:26:33;;;;;;;16.58;5.60;;;6.60;1.00;;;;;;6249652;22;20186;-82
2023/12/20 04:28:59;;;;;;;10.67;5.50;;;6.60;1.00;;;;;;6276122;22;20177;-84
2023/12/20 04:31:24;;;;;;;9.33;5.33;;;6.60;1.00;;;;;;6275700;22;20152;-84
2023/12/20 04:33:50;;;;;;;13.30;6.07;;;6.60;1.00;;;;;;6275285;22;20145;-83
2023/12/20 04:36:15;;;;;;;14.37;5.30;;;6.60;1.00;;;;;;6249084;22;20153;-84
2023/12/20 04:38:41;;;;;;;12.97;4.93;;;6.60;1.00;;;;;;6276056;22;20533;-83
2023/12/20 04:41:06;;;;;;;15.40;6.17;;;6.60;1.00;;;;;;6276479;22;20152;-83
2023/12/20 04:43:32;;;;;;;21.27;6.10;;;6.60;1.00;;;;;;6275059;22;20427;-83
2023/12/20 04:45:57;;;;;;;15.90;5.47;;;6.50;1.00;;;;;;6276676;22;20153;-83
2023/12/20 04:48:23;;;;;;;13.20;4.67;;;6.60;1.00;;;;;;6275567;22;20226;-83
2023/12/20 04:50:48;;;;;;;20.10;6.33;;;6.60;1.00;;;;;;6273654;22;20234;-83
2023/12/20 04:53:14;;;;;;;14.63;5.47;;;6.60;1.00;;;;;;6275537;22;20171;-83
2023/12/20 04:55:39;;;;;;;13.07;5.90;;;6.60;1.00;;;;;;6276067;22;20601;-84
2023/12/20 04:58:05;;;;;;;15.30;5.53;;;6.60;1.00;;;;;;6283879;22;20149;-83
2023/12/20 05:00:31;;;;;;;18.87;4.77;;;6.60;1.00;;;;;;6282806;22;20469;-84
2023/12/20 05:02:56;;;;;;;16.65;5.28;;;6.60;1.00;;;;;;6281825;22;20180;-83
2023/12/20 05:05:22;;;;;;;16.00;4.90;;;6.60;1.00;;;;;;6284755;22;20153;-84
2023/12/20 05:07:47;;;;;;;8.87;4.97;;;6.60;1.00;;;;;;6282178;22;20149;-84
2023/12/20 05:10:13;;;;;;;14.60;5.27;;;6.60;1.00;;;;;;6282915;22;20222;-84
2023/12/20 05:12:39;;;;;;;18.77;5.13;;;6.60;1.00;;;;;;6283372;22;20149;-85
2023/12/20 05:15:06;;;;;;;11.13;4.83;;;6.60;1.00;;;;;;6283276;22;20156;-84
2023/12/20 05:17:31;;;;;;;12.52;4.85;;;6.60;1.00;;;;;;6283949;22;20149;-84
2023/12/20 05:19:57;;;;;;;10.67;5.13;;;6.60;1.00;;;;;;6282986;22;20655;-83
2023/12/20 05:22:22;;;;;;;13.97;5.07;;;6.60;1.00;;;;;;6281286;22;20177;-84
2023/12/20 05:24:48;;;;;;;16.80;5.70;;;6.70;1.00;;;;;;6282548;22;20464;-82
2023/12/20 05:27:13;;;;;;;24.60;6.10;;;6.70;1.00;;;;;;6282905;22;20153;-85
2023/12/20 05:29:39;;;;;;;17.80;5.23;;;6.70;1.00;;;;;;6283955;22;20191;-85
2023/12/20 05:32:04;;;;;;;16.63;5.50;;;6.70;1.00;;;;;;6283014;22;20151;-84
2023/12/20 05:34:31;;;;;;;15.40;4.33;;;6.80;1.00;;;;;;6284849;22;20470;-84
2023/12/20 05:36:57;;;;;;;16.50;5.65;;;6.80;1.00;;;;;;6284915;22;20152;-84
2023/12/20 05:39:23;;;;;;;14.90;6.30;;;6.80;1.00;;;;;;6281124;22;20705;-83
2023/12/20 05:41:48;;;;;;;13.17;5.30;;;6.80;1.00;;;;;;6281994;22;20157;-83
2023/12/20 05:44:14;;;;;;;18.20;4.57;;;6.80;1.00;;;;;;6276732;22;20171;-84
2023/12/20 05:46:40;;;;;;;12.50;4.10;;;6.90;1.00;;;;;;6277404;22;20153;-84
2023/12/20 05:49:05;;;;;;;17.93;4.57;;;6.90;1.00;;;;;;6277583;22;20188;-83
2023/12/20 05:51:31;;;;;;;14.23;4.60;;;6.90;1.00;;;;;;6276888;22;20887;-83
2023/12/20 05:53:56;;;;;;;17.13;5.47;;;6.90;1.00;;;;;;6277302;22;20243;-84
2023/12/20 05:56:22;;;;;;;14.23;3.87;;;6.90;1.00;;;;;;6277264;22;20153;-83
2023/12/20 05:58:47;;;;;;;19.40;4.90;;;6.90;1.00;;;;;;6275586;22;20173;-83
2023/12/20 06:01:14;;;;;;;14.13;4.67;;;6.90;1.00;;;;;;6276314;22;20175;-84
2023/12/20 06:03:43;;;;;;;11.02;4.07;;;7.00;1.00;;;;;;6276559;22;20149;-84
2023/12/20 06:06:09;;;;;;;13.25;4.65;;;7.00;1.00;;;;;;6250641;22;20195;-84
2023/12/20 06:08:35;;;;;;;13.27;4.40;;;7.00;1.00;;;;;;6276800;22;20843;-83
2023/12/20 06:11:01;;;;;;;18.40;4.40;;;7.00;1.00;;;;;;6277700;22;20415;-82
2023/12/20 06:13:26;;;;;;;18.83;3.90;;;7.00;1.00;;;;;;6276456;22;20440;-83
2023/12/20 06:15:54;;;;;;;16.93;5.60;;;7.10;1.00;;;;;;6277676;22;20141;-83
2023/12/20 06:18:19;;;;;;;21.17;6.70;;;7.10;1.00;;;;;;6276894;22;20260;-83
2023/12/20 06:20:45;;;;;;;20.83;5.73;;;7.10;1.00;;;;;;6276021;22;20404;-84
2023/12/20 06:23:10;;;;;;;14.97;4.43;;;7.10;1.00;;;;;;6276344;22;20656;-83
2023/12/20 06:25:36;;;;;;;18.17;4.60;;;7.10;1.00;;;;;;6277068;22;20188;-83
2023/12/20 06:28:01;;;;;;;14.37;5.40;;;7.10;1.00;;;;;;6279820;22;20219;-84
2023/12/20 06:30:27;;;;;;;16.50;4.70;;;7.10;1.00;;;;;;6284009;22;20176;-85
2023/12/20 06:32:54;;;;;;;21.30;5.13;;;7.10;1.00;;;;;;6281358;22;20604;-84
2023/12/20 06:35:19;;;;;;;18.45;4.60;;;7.10;1.00;;;;;;6256065;22;20161;-83
2023/12/20 06:37:45;;;;;;;17.33;4.73;;;7.10;1.00;;;;;;6253904;22;20267;-84
2023/12/20 06:40:11;;;;;;;8.40;5.07;;;7.10;1.00;;;;;;6283562;22;20173;-84
2023/12/20 06:42:37;;;;;;;20.03;6.27;;;7.10;1.00;;;;;;6283821;22;20745;-83
2023/12/20 06:45:03;;;;;;;16.60;5.43;;;7.10;1.00;;;;;;6282943;22;20379;-84
2023/12/20 06:47:28;;;;;;;16.83;4.63;;;7.10;1.00;;;;;;6282695;22;20382;-85
2023/12/20 06:49:54;;;;;;;11.50;4.90;;;7.10;1.00;;;;;;6282955;22;20423;-84
2023/12/20 06:52:19;;;;;;;21.93;6.03;;;7.10;1.00;;;;;;6254775;22;20168;-84
2023/12/20 06:54:45;;;;;;;14.07;5.60;;;7.10;1.00;;;;;;6283363;22;20153;-82
2023/12/20 06:57:10;;;;;;;14.77;5.93;;;7.10;1.00;;;;;;6282666;22;20221;-84
2023/12/20 06:59:40;;;;;;;17.00;6.20;;;7.10;1.00;;;;;;6257527;22;20202;-84
2023/12/20 07:02:06;;;;;;;15.68;5.72;;;7.10;1.00;;;;;;6283924;22;20145;-84
2023/12/20 07:04:31;;;;;;;22.57;6.80;;;7.10;1.00;;;;;;6284028;22;20573;-84
2023/12/20 07:07:00;;;;;;;27.60;6.33;;;7.10;1.00;;;;;;6283532;22;20151;-82
2023/12/20 07:09:26;;;;;;;13.43;5.80;;;7.10;1.00;;;;;;6280805;22;20176;-83
2023/12/20 07:11:51;;;;;;;15.85;6.43;;;7.10;1.00;;;;;;6283663;22;20169;-85
2023/12/20 07:14:17;;;;;;;19.37;6.10;;;7.10;1.00;;;;;;6280578;22;20211;-83
2023/12/20 07:16:42;;;;;;;14.90;6.07;;;7.10;1.00;;;;;;6275769;22;20157;-84
2023/12/20 07:19:08;;;;;;;20.30;6.10;;;7.10;1.00;;;;;;6277489;22;20253;-83
2023/12/20 07:21:33;;;;;;;24.33;6.60;;;7.10;1.00;;;;;;6277162;22;20630;-83
2023/12/20 07:23:59;;;;;;;12.13;5.17;;;7.10;1.00;;;;;;6276549;22;20152;-83
2023/12/20 07:26:24;;;;;;;13.67;4.93;;;7.00;1.00;;;;;;6277364;22;20149;-83
2023/12/20 07:28:50;;;;;;;25.97;6.90;;;6.90;1.00;;;;;;6250448;22;20232;-82
2023/12/20 07:31:16;;;;;;;26.77;6.30;;;6.90;1.00;;;;;;6276201;22;20549;-81
2023/12/20 07:33:42;;;;;;;25.45;6.20;;;6.90;1.00;;;;;;6275039;22;20389;-81
2023/12/20 07:36:08;;;;;;;22.17;7.03;;;6.90;1.00;;;;;;6276229;22;20597;-83
2023/12/20 07:38:33;;;;;;;18.73;6.03;;;7.00;1.00;;;;;;6276325;22;20168;-83
2023/12/20 07:40:59;;;;;;;14.90;5.83;;;7.00;1.00;;;;;;6276456;22;20159;-81
2023/12/20 07:43:25;;;;;;;19.23;5.90;;;7.00;1.00;;;;;;6274203;22;20195;-83
2023/12/20 07:45:50;;;;;;;15.30;5.90;;;7.00;1.00;;;;;;6275024;22;20408;-83
2023/12/20 07:48:16;;;;;;;17.67;5.97;;;6.90;1.00;;;;;;6275436;22;20163;-83
2023/12/20 07:50:42;;;;;;;18.13;6.67;;;6.90;1.00;;;;;;6274266;22;20233;-82
2023/12/20 07:53:07;;;;;;;14.47;6.40;;;6.90;1.00;;;;;;6248216;22;20505;-82
2023/12/20 07:55:34;;;;;;;14.00;4.80;;;6.90;1.00;;;;;;6274315;22;20842;-83
2023/12/20 07:58:00;;;;;;;18.98;6.90;;;6.90;1.00;;;;;;6274109;22;20149;-83
2023/12/20 08:00:26;;;;;;;24.53;5.80;;;6.90;1.00;;;;;;6282304;22;20159;-83
2023/12/20 08:02:51;;;;;;;20.90;5.63;;;7.00;1.00;;;;;;6282098;22;20375;-83
2023/12/20 08:05:17;;;;;;;23.93;6.07;;;7.00;1.00;;;;;;6283307;22;20148;-83
2023/12/20 08:07:42;;;;;;;20.83;5.63;;;7.00;1.00;;;;;;6282622;22;20152;-83
2023/12/20 08:10:08;;;;;;;19.37;6.50;;;7.00;1.00;;;;;;6282567;22;20181;-84
2023/12/20 08:12:34;;;;;;;12.00;4.97;;;7.10;1.00;;;;;;6282897;22;20173;-84
2023/12/20 08:15:00;;;;;;;14.67;5.40;;;7.10;1.00;;;;;;6256741;22;20236;-83
2023/12/20 08:17:25;;;;;;;14.33;4.90;;;7.30;1.00;;;;;;6281050;22;20886;-82
2023/12/20 08:19:51;;;;;;;12.67;4.90;;;7.50;1.00;;;;;;6280771;22;20184;-83
2023/12/20 08:22:17;;;;;;;19.13;5.40;;;7.70;99.90;;;;;;6280731;22;20211;-84
2023/12/20 08:24:42;;;;;;;15.10;5.17;;;7.70;99.90;;;;;;6281425;22;20386;-83
2023/12/20 08:27:09;;;;;;;13.67;4.10;;;7.80;99.90;;;;;;6255943;22;20558;-82
2023/12/20 08:29:35;;;;;;;15.10;5.47;;;7.90;99.90;;;;;;6283058;22;20595;-84
2023/12/20 08:32:01;;;;;;;9.17;4.10;;;8.20;4.70;;;;;;6282892;22;20466;-82
2023/12/20 08:34:26;;;;;;;14.40;4.77;;;8.40;99.90;;;;;;6283775;22;20382;-84
2023/12/20 08:36:52;;;;;;;15.63;5.20;;;8.60;99.90;;;;;;6282486;22;20872;-82
2023/12/20 08:39:17;;;;;;;18.27;5.40;;;8.60;1.00;;;;;;6282954;22;20247;-83
2023/12/20 08:41:43;;;;;;;14.33;6.60;;;8.80;1.00;;;;;;6282410;22;20149;-83
2023/12/20 08:44:09;;;;;;;13.47;4.90;;;8.90;73.90;;;;;;6281677;22;20160;-84
2023/12/20 08:46:35;;;;;;;12.87;5.60;;;9.10;1.00;;;;;;6280169;22;20178;-83
2023/12/20 08:49:01;;;;;;;17.63;5.03;;;9.40;1.00;;;;;;6280551;22;20462;-82
2023/12/20 08:51:27;;;;;;;13.50;4.93;;;9.60;1.00;;;;;;6251166;22;20699;-84
2023/12/20 08:53:53;;;;;;;9.73;3.70;;;9.50;99.90;;;;;;6248165;22;20379;-84
2023/12/20 08:56:18;;;;;;;16.50;5.03;;;9.30;1.00;;;;;;6276795;22;20403;-84
2023/12/20 08:58:45;;;;;;;18.53;4.77;;;9.10;1.00;;;;;;6275740;22;20172;-83
2023/12/20 09:01:11;;;;;;;19.50;4.83;;;8.90;1.00;;;;;;6272130;22;20235;-83
2023/12/20 09:03:36;;;;;;;11.30;5.27;;;8.90;61.80;;;;;;6274878;22;20839;-82
2023/12/20 09:06:02;;;;;;;10.47;4.10;;;8.70;1.00;;;;;;6247973;22;20156;-82
2023/12/20 09:08:27;;;;;;;18.83;4.23;;;8.60;1.00;;;;;;6249355;22;20184;-83
2023/12/20 09:10:53;;;;;;;12.07;5.10;;;8.40;1.00;;;;;;6277990;22;20181;-83
2023/12/20 09:13:18;;;;;;;23.30;5.20;;;8.30;99.90;;;;;;6278540;22;20157;-83
2023/12/20 09:15:44;;;;;;;13.20;3.80;;;8.20;99.90;;;;;;6277566;22;20153;-83
2023/12/20 09:18:09;;;;;;;16.47;5.00;;;8.20;99.90;;;;;;6276839;22;20172;-83
2023/12/20 09:20:35;;;;;;;9.67;4.20;;;8.10;1.00;;;;;;6277886;22;20178;-84
2023/12/20 09:23:01;;;;;;;12.63;5.23;;;8.00;1.00;;;;;;6275952;22;20167;-84
2023/12/20 09:25:27;;;;;;;15.63;4.50;;;7.90;18.80;;;;;;6249617;22;20553;-84
2023/12/20 09:27:52;;;;;;;14.87;4.40;;;7.80;96.50;;;;;;6278316;22;20379;-85
2023/12/20 09:30:19;;;;;;;12.50;4.40;;;7.90;99.90;;;;;;6278730;22;20184;-84
2023/12/20 09:32:45;;;;;;;18.03;4.17;;;7.90;99.90;;;;;;6259057;22;20778;-85
2023/12/20 09:35:11;;;;;;;17.07;4.20;;;7.90;99.90;;;;;;6286719;22;20375;-85
2023/12/20 09:37:36;;;;;;;10.70;3.80;;;8.00;99.90;;;;;;6284409;22;20375;-85
2023/12/20 09:40:03;;;;;;;16.63;4.43;;;8.10;99.90;;;;;;6286071;22;20172;-86
2023/12/20 09:42:53;;;;;;;19.97;4.67;;;8.30;1.00;;;;;;6287032;22;20157;-85
2023/12/20 09:45:21;;;;;;;16.27;4.10;;;8.40;99.90;;;;;;6286780;22;20819;-84
2023/12/20 09:47:48;;;;;;;12.97;3.77;;;8.50;2.30;;;;;;6285811;22;20411;-86
2023/12/20 09:50:14;;;;;;;9.00;4.47;;;8.80;99.90;;;;;;6258697;22;20423;-85
2023/12/20 09:52:41;;;;;;;6.57;3.70;;;9.20;1.00;;;;;;6278820;22;21108;-84
2023/12/20 09:55:08;;;;;;;12.37;3.63;;;9.20;44.40;;;;;;6278214;22;20155;-83
2023/12/20 09:57:33;;;;;;;13.50;4.33;;;9.10;99.90;;;;;;6281583;22;20379;-82
2023/12/20 09:59:59;;;;;;;14.13;3.67;;;9.00;1.00;;;;;;6254682;22;20407;-84
2023/12/20 10:02:29;;;;;;;10.73;3.10;;;8.80;99.90;;;;;;6282039;22;20156;-84
2023/12/20 10:04:55;;;;;;;14.47;3.90;;;8.80;99.90;;;;;;6284991;22;20144;-85
2023/12/20 10:07:22;;;;;;;15.07;3.40;;;8.80;93.20;;;;;;6288348;22;20829;-85
2023/12/20 10:09:48;;;;;;;15.37;4.10;;;8.70;68.20;;;;;;6285486;22;20415;-85
2023/12/20 10:12:14;;;;;;;14.20;4.67;;;8.70;99.90;;;;;;6283929;22;20380;-85
2023/12/20 10:14:39;;;;;;;15.73;4.13;;;8.60;1.00;;;;;;6286600;22;20383;-85
2023/12/20 10:17:05;;;;;;;13.30;3.70;;;8.60;21.60;;;;;;6284588;22;20149;-85
2023/12/20 10:19:32;;;;;;;10.57;3.80;;;8.60;1.00;;;;;;6251995;22;20322;-83
2023/12/20 10:22:01;;;;;;;10.40;4.10;;;8.60;1.00;;;;;;6252997;22;20706;-84
2023/12/20 10:24:29;;;;;;;21.63;5.30;;;8.50;43.90;;;;;;6280465;22;20728;-85
2023/12/20 10:27:08;;;;;;;13.50;4.63;;;8.40;99.90;;;;;;6250814;22;20470;-85
2023/12/20 10:29:37;;;;;;;11.30;4.40;;;8.30;1.00;;;;;;6274584;22;20422;-83
2023/12/20 10:32:26;;;;;;;9.67;3.67;;;8.30;1.00;;;;;;6277494;22;20372;-85
2023/12/20 10:34:53;;;;;;;9.70;3.10;;;8.20;99.90;;;;;;6280899;22;20367;-85
2023/12/20 10:37:19;;;;;;;18.83;4.80;;;8.20;99.90;;;;;;6278273;22;20378;-86
2023/12/20 10:39:50;;;;;;;13.60;3.70;;;8.20;1.00;;;;;;6278070;22;20470;-84
2023/12/20 10:42:17;;;;;;;15.53;4.40;;;8.10;1.00;;;;;;6252483;22;20224;-83
2023/12/20 10:44:42;;;;;;;13.30;4.50;;;8.10;1.00;;;;;;6251981;22;20375;-84
2023/12/20 10:47:11;;;;;;;13.90;3.57;;;8.10;1.00;;;;;;6278849;22;20525;-84
2023/12/20 10:49:39;;;;;;;11.63;3.50;;;8.20;1.00;;;;;;6277989;22;20189;-82
2023/12/20 10:52:06;;;;;;;14.50;3.97;;;8.30;1.00;;;;;;6278727;22;20371;-83
2023/12/20 10:54:32;;;;;;;14.27;4.17;;;8.40;1.00;;;;;;6277861;22;20372;-83
2023/12/20 10:56:59;;;;;;;21.67;3.60;;;8.40;99.90;;;;;;6276189;22;20376;-83
2023/12/20 10:59:27;;;;;;;8.50;4.17;;;8.40;99.90;;;;;;6277605;22;20399;-84
2023/12/20 11:01:56;;;;;;;15.83;4.03;;;8.40;99.90;;;;;;6277179;22;20379;-83
2023/12/20 11:04:34;;;;;;;10.67;4.20;;;8.40;99.90;;;;;;6284556;22;20379;-84
2023/12/20 11:07:12;;;;;;;26.63;6.13;;;8.50;99.90;;;;;;6285390;22;20698;-83
2023/12/20 11:09:43;;;;;;;10.60;3.37;;;8.60;99.90;;;;;;6256586;22;20430;-84
2023/12/20 11:12:17;;;;;;;16.60;3.43;;;8.60;1.00;;;;;;6283578;22;20417;-84
2023/12/20 11:14:49;;;;;;;9.57;3.47;;;8.50;44.70;;;;;;6282347;22;20783;-84
2023/12/20 11:17:16;;;;;;;9.50;4.37;;;8.50;19.50;;;;;;6283197;22;20395;-84
2023/12/20 11:19:57;;;;;;;12.23;3.77;;;8.50;99.90;;;;;;6283335;22;20458;-83
2023/12/20 11:22:33;;;;;;;17.60;3.90;;;8.50;99.90;;;;;;6285753;22;20383;-85
2023/12/20 11:25:09;;;;;;;9.77;4.20;;;8.50;99.90;;;;;;6256284;22;20469;-83
2023/12/20 11:27:45;;;;;;;14.33;4.77;;;8.40;99.90;;;;;;6281982;22;20450;-84
2023/12/20 11:30:11;;;;;;;12.43;4.47;;;8.40;99.90;;;;;;6255139;22;20423;-83
2023/12/20 11:32:37;;;;;;;16.53;4.00;;;8.30;1.00;;;;;;6283051;22;20371;-83
2023/12/20 11:35:08;;;;;;;14.03;5.30;;;8.30;1.00;;;;;;6285444;22;20376;-83
2023/12/20 11:37:42;;;;;;;13.57;3.70;;;8.30;1.00;;;;;;6286075;22;20372;-84
2023/12/20 11:40:11;;;;;;;12.90;4.20;;;8.40;1.00;;;;;;6285386;22;20399;-84
2023/12/20 11:42:41;;;;;;;17.40;4.23;;;8.40;1.00;;;;;;6281813;22;20407;-83
2023/12/20 11:45:10;;;;;;;13.13;3.73;;;8.40;1.00;;;;;;6280028;22;20467;-84
2023/12/20 11:47:36;;;;;;;17.10;4.83;;;8.40;1.00;;;;;;6281513;22;20738;-85
2023/12/20 11:50:03;;;;;;;10.83;3.90;;;8.40;1.00;;;;;;6280516;22;20419;-83
2023/12/20 11:52:29;;;;;;;14.93;4.03;;;8.40;1.00;;;;;;6276459;22;20280;-84
2023/12/20 11:54:55;;;;;;;24.47;4.83;;;8.40;1.00;;;;;;6277723;22;20376;-84
2023/12/20 11:57:21;;;;;;;14.63;5.30;;;8.40;1.00;;;;;;6277050;22;20391;-84
2023/12/20 11:59:46;;;;;;;9.70;4.43;;;8.40;1.00;;;;;;6274225;22;20197;-82
2023/12/20 12:02:12;;;;;;;15.73;4.10;;;8.40;1.00;;;;;;6246825;22;20157;-82
2023/12/20 12:04:38;;;;;;;12.13;4.20;;;8.40;1.00;;;;;;6276791;22;20175;-83
2023/12/20 12:07:04;;;;;;;20.33;4.80;;;8.40;1.00;;;;;;6276776;22;20206;-83
2023/12/20 12:09:29;;;;;;;11.00;3.57;;;8.40;1.00;;;;;;6276878;22;20799;-84
2023/12/20 12:11:55;;;;;;;15.63;4.53;;;8.40;1.00;;;;;;6274975;22;20149;-83
2023/12/20 12:14:20;;;;;;;14.90;5.57;;;8.40;1.00;;;;;;6275200;22;20148;-83
2023/12/20 12:16:46;;;;;;;14.07;4.67;;;8.40;1.00;;;;;;6275395;22;20581;-84
2023/12/20 12:19:23;;;;;;;14.90;4.27;;;8.50;1.00;;;;;;6275256;22;20180;-82
2023/12/20 12:21:49;;;;;;;14.53;4.73;;;8.40;1.00;;;;;;6275596;22;20375;-83
2023/12/20 12:24:14;;;;;;;9.10;4.83;;;8.40;1.00;;;;;;6275290;22;20375;-82
2023/12/20 12:26:40;;;;;;;18.10;5.47;;;8.40;23.40;;;;;;6249446;22;20422;-84
2023/12/20 12:29:09;;;;;;;10.43;4.40;;;8.40;83.00;;;;;;6274520;22;20196;-84
2023/12/20 12:31:35;;;;;;;13.27;4.80;;;8.30;99.90;;;;;;6276442;22;20160;-84
2023/12/20 12:34:01;;;;;;;18.07;4.30;;;8.40;99.90;;;;;;6275722;22;20367;-83
2023/12/20 12:36:28;;;;;;;14.03;4.73;;;8.40;99.90;;;;;;6280692;22;20442;-84
2023/12/20 12:38:57;;;;;;;13.37;4.53;;;8.40;99.90;;;;;;6258130;22;20228;-83
2023/12/20 12:41:23;;;;;;;10.10;4.57;;;8.40;99.90;;;;;;6282437;22;20363;-84
2023/12/20 12:43:48;;;;;;;17.10;5.60;;;8.40;99.90;;;;;;6256505;22;20403;-84
2023/12/20 12:46:14;;;;;;;13.87;4.87;;;8.30;99.90;;;;;;6285063;22;20155;-83
2023/12/20 12:48:40;;;;;;;16.37;4.70;;;8.30;99.90;;;;;;6286222;22;20190;-84
2023/12/20 12:51:07;;;;;;;12.50;5.70;;;8.30;99.90;;;;;;6286536;22;20478;-84